sensor_id;sensor_type;location;lat;lon;timestamp;P1;durP1;ratioP1;P2;durP2;ratioP2
47259;SDS011;32999;52.412;4.890;2023-02-22T00:02:41;57.22;;;19.17;;
47259;SDS011;32999;52.412;4.890;2023-02-22T00:07:45;50.78;;;17.55;;
47259;SDS011;32999;52.412;4.890;2023-02-22T00:12:48;57.38;;;19.67;;
47259;SDS011;32999;52.412;4.890;2023-02-22T00:17:51;57.83;;;18.50;;
47259;SDS011;32999;52.412;4.890;2023-02-22T00:22:55;64.30;;;22.30;;
47259;SDS011;32999;52.412;4.890;2023-02-22T00:27:57;66.80;;;22.65;;
47259;SDS011;32999;52.412;4.890;2023-02-22T00:32:58;62.35;;;21.38;;
47259;SDS011;32999;52.412;4.890;2023-02-22T00:38:02;57.05;;;21.38;;
47259;SDS011;32999;52.412;4.890;2023-02-22T00:43:05;69.17;;;21.63;;
47259;SDS011;32999;52.412;4.890;2023-02-22T00:48:07;64.47;;;21.38;;
47259;SDS011;32999;52.412;4.890;2023-02-22T00:53:10;58.00;;;20.85;;
47259;SDS011;32999;52.412;4.890;2023-02-22T00:58:12;59.83;;;18.58;;
47259;SDS011;32999;52.412;4.890;2023-02-22T01:03:15;62.85;;;20.33;;
47259;SDS011;32999;52.412;4.890;2023-02-22T01:08:20;72.57;;;20.02;;
47259;SDS011;32999;52.412;4.890;2023-02-22T01:13:24;66.60;;;20.92;;
47259;SDS011;32999;52.412;4.890;2023-02-22T02:37:16;42.85;;;16.67;;
47259;SDS011;32999;52.412;4.890;2023-02-22T04:45:00;45.05;;;16.90;;
47259;SDS011;32999;52.412;4.890;2023-02-22T05:08:57;47.92;;;17.70;;
47259;SDS011;32999;52.412;4.890;2023-02-22T05:37:46;44.90;;;17.63;;
47259;SDS011;32999;52.412;4.890;2023-02-22T05:55:32;46.72;;;18.00;;
47259;SDS011;32999;52.412;4.890;2023-02-22T06:18:57;48.20;;;17.48;;
47259;SDS011;32999;52.412;4.890;2023-02-22T06:24:10;49.47;;;17.90;;
47259;SDS011;32999;52.412;4.890;2023-02-22T06:41:35;47.40;;;18.40;;
47259;SDS011;32999;52.412;4.890;2023-02-22T07:05:03;54.35;;;18.80;;
47259;SDS011;32999;52.412;4.890;2023-02-22T07:10:06;57.65;;;18.73;;
47259;SDS011;32999;52.412;4.890;2023-02-22T07:20:58;53.03;;;19.75;;
47259;SDS011;32999;52.412;4.890;2023-02-22T07:26:12;69.70;;;20.27;;
47259;SDS011;32999;52.412;4.890;2023-02-22T07:32:24;63.60;;;20.98;;
47259;SDS011;32999;52.412;4.890;2023-02-22T07:54:49;60.60;;;21.88;;
47259;SDS011;32999;52.412;4.890;2023-02-22T07:59:54;62.92;;;19.80;;
47259;SDS011;32999;52.412;4.890;2023-02-22T08:11:08;59.47;;;19.65;;
47259;SDS011;32999;52.412;4.890;2023-02-22T08:16:18;70.55;;;20.60;;
47259;SDS011;32999;52.412;4.890;2023-02-22T08:21:38;57.97;;;18.02;;
47259;SDS011;32999;52.412;4.890;2023-02-22T08:32:39;49.35;;;17.52;;
47259;SDS011;32999;52.412;4.890;2023-02-22T08:38:46;47.50;;;17.95;;
47259;SDS011;32999;52.412;4.890;2023-02-22T08:50:36;46.65;;;16.05;;
47259;SDS011;32999;52.412;4.890;2023-02-22T08:56:18;42.15;;;16.92;;
47259;SDS011;32999;52.412;4.890;2023-02-22T09:19:39;43.33;;;15.23;;
47259;SDS011;32999;52.412;4.890;2023-02-22T10:19:42;34.67;;;14.55;;
47259;SDS011;32999;52.412;4.890;2023-02-22T10:24:57;31.33;;;13.27;;
47259;SDS011;32999;52.412;4.890;2023-02-22T10:30:24;36.88;;;14.55;;
47259;SDS011;32999;52.412;4.890;2023-02-22T10:35:31;32.45;;;14.05;;
47259;SDS011;32999;52.412;4.890;2023-02-22T10:40:35;27.38;;;12.95;;
47259;SDS011;32999;52.412;4.890;2023-02-22T10:45:39;29.27;;;12.77;;
47259;SDS011;32999;52.412;4.890;2023-02-22T10:50:42;25.98;;;12.48;;
47259;SDS011;32999;52.412;4.890;2023-02-22T11:01:34;24.08;;;11.10;;
47259;SDS011;32999;52.412;4.890;2023-02-22T11:11:43;22.80;;;10.35;;
47259;SDS011;32999;52.412;4.890;2023-02-22T11:16:51;25.20;;;11.43;;
47259;SDS011;32999;52.412;4.890;2023-02-22T11:21:56;22.42;;;10.82;;
47259;SDS011;32999;52.412;4.890;2023-02-22T11:27:00;21.35;;;11.18;;
47259;SDS011;32999;52.412;4.890;2023-02-22T11:32:12;21.48;;;10.10;;
47259;SDS011;32999;52.412;4.890;2023-02-22T11:37:27;21.70;;;11.63;;
47259;SDS011;32999;52.412;4.890;2023-02-22T11:42:31;20.45;;;10.88;;
47259;SDS011;32999;52.412;4.890;2023-02-22T11:47:35;22.92;;;11.25;;
47259;SDS011;32999;52.412;4.890;2023-02-22T11:52:47;24.20;;;11.23;;
47259;SDS011;32999;52.412;4.890;2023-02-22T11:57:59;20.17;;;10.60;;
47259;SDS011;32999;52.412;4.890;2023-02-22T12:08:42;18.08;;;9.68;;
47259;SDS011;32999;52.412;4.890;2023-02-22T12:14:00;22.55;;;11.32;;
47259;SDS011;32999;52.412;4.890;2023-02-22T12:19:17;21.10;;;11.30;;
47259;SDS011;32999;52.412;4.890;2023-02-22T12:24:26;18.20;;;9.47;;
47259;SDS011;32999;52.412;4.890;2023-02-22T12:29:35;21.60;;;10.70;;
47259;SDS011;32999;52.412;4.890;2023-02-22T12:34:45;18.98;;;10.80;;
47259;SDS011;32999;52.412;4.890;2023-02-22T12:39:54;20.80;;;10.32;;
47259;SDS011;32999;52.412;4.890;2023-02-22T12:45:10;20.10;;;11.88;;
47259;SDS011;32999;52.412;4.890;2023-02-22T12:50:17;23.88;;;11.52;;
47259;SDS011;32999;52.412;4.890;2023-02-22T12:55:22;22.85;;;10.82;;
47259;SDS011;32999;52.412;4.890;2023-02-22T13:00:27;23.63;;;12.45;;
47259;SDS011;32999;52.412;4.890;2023-02-22T13:05:35;22.48;;;11.65;;
47259;SDS011;32999;52.412;4.890;2023-02-22T13:16:21;21.25;;;11.60;;
47259;SDS011;32999;52.412;4.890;2023-02-22T13:21:38;22.77;;;11.82;;
47259;SDS011;32999;52.412;4.890;2023-02-22T13:26:48;20.75;;;10.93;;
47259;SDS011;32999;52.412;4.890;2023-02-22T13:31:56;23.23;;;12.70;;
47259;SDS011;32999;52.412;4.890;2023-02-22T13:37:27;23.48;;;11.85;;
47259;SDS011;32999;52.412;4.890;2023-02-22T13:42:54;23.23;;;12.45;;
47259;SDS011;32999;52.412;4.890;2023-02-22T13:53:49;23.42;;;12.10;;
47259;SDS011;32999;52.412;4.890;2023-02-22T13:58:56;22.42;;;12.25;;
47259;SDS011;32999;52.412;4.890;2023-02-22T14:20:40;22.13;;;11.35;;
47259;SDS011;32999;52.412;4.890;2023-02-22T14:25:45;21.88;;;12.15;;
47259;SDS011;32999;52.412;4.890;2023-02-22T14:30:47;19.98;;;11.73;;
47259;SDS011;32999;52.412;4.890;2023-02-22T14:35:49;22.48;;;12.20;;
47259;SDS011;32999;52.412;4.890;2023-02-22T14:40:53;21.92;;;10.40;;
47259;SDS011;32999;52.412;4.890;2023-02-22T14:45:58;22.80;;;12.70;;
47259;SDS011;32999;52.412;4.890;2023-02-22T14:51:04;20.70;;;11.70;;
47259;SDS011;32999;52.412;4.890;2023-02-22T14:56:15;23.95;;;12.55;;
47259;SDS011;32999;52.412;4.890;2023-02-22T15:01:23;20.30;;;12.48;;
47259;SDS011;32999;52.412;4.890;2023-02-22T15:06:31;21.65;;;11.68;;
47259;SDS011;32999;52.412;4.890;2023-02-22T15:11:35;28.65;;;12.55;;
47259;SDS011;32999;52.412;4.890;2023-02-22T15:16:37;22.55;;;12.18;;
47259;SDS011;32999;52.412;4.890;2023-02-22T15:21:47;23.70;;;12.38;;
47259;SDS011;32999;52.412;4.890;2023-02-22T15:26:53;22.93;;;12.80;;
47259;SDS011;32999;52.412;4.890;2023-02-22T15:37:00;24.45;;;12.10;;
47259;SDS011;32999;52.412;4.890;2023-02-22T15:42:23;30.10;;;12.93;;
47259;SDS011;32999;52.412;4.890;2023-02-22T15:47:26;23.75;;;13.63;;
47259;SDS011;32999;52.412;4.890;2023-02-22T15:52:30;32.35;;;13.27;;
47259;SDS011;32999;52.412;4.890;2023-02-22T15:57:34;35.10;;;12.50;;
47259;SDS011;32999;52.412;4.890;2023-02-22T16:02:36;31.95;;;14.55;;
47259;SDS011;32999;52.412;4.890;2023-02-22T16:08:00;20.85;;;12.40;;
47259;SDS011;32999;52.412;4.890;2023-02-22T16:13:04;22.58;;;13.35;;
47259;SDS011;32999;52.412;4.890;2023-02-22T16:18:22;23.00;;;13.02;;
47259;SDS011;32999;52.412;4.890;2023-02-22T16:23:27;23.63;;;12.48;;
47259;SDS011;32999;52.412;4.890;2023-02-22T16:28:33;33.30;;;14.00;;
47259;SDS011;32999;52.412;4.890;2023-02-22T16:33:36;34.08;;;14.13;;
47259;SDS011;32999;52.412;4.890;2023-02-22T16:38:40;25.75;;;13.48;;
47259;SDS011;32999;52.412;4.890;2023-02-22T16:43:46;29.13;;;15.25;;
47259;SDS011;32999;52.412;4.890;2023-02-22T16:48:50;32.63;;;16.42;;
47259;SDS011;32999;52.412;4.890;2023-02-22T16:53:52;34.15;;;16.40;;
47259;SDS011;32999;52.412;4.890;2023-02-22T16:58:56;43.35;;;19.75;;
47259;SDS011;32999;52.412;4.890;2023-02-22T17:04:01;35.63;;;19.27;;
47259;SDS011;32999;52.412;4.890;2023-02-22T17:09:03;38.00;;;19.63;;
47259;SDS011;32999;52.412;4.890;2023-02-22T17:14:07;42.88;;;21.42;;
47259;SDS011;32999;52.412;4.890;2023-02-22T17:19:11;43.17;;;22.88;;
47259;SDS011;32999;52.412;4.890;2023-02-22T17:24:16;44.20;;;24.00;;
47259;SDS011;32999;52.412;4.890;2023-02-22T17:29:23;49.92;;;24.88;;
47259;SDS011;32999;52.412;4.890;2023-02-22T17:34:26;49.17;;;24.58;;
47259;SDS011;32999;52.412;4.890;2023-02-22T17:39:28;46.03;;;23.50;;
47259;SDS011;32999;52.412;4.890;2023-02-22T17:44:31;46.33;;;24.48;;
47259;SDS011;32999;52.412;4.890;2023-02-22T17:49:34;53.27;;;24.43;;
47259;SDS011;32999;52.412;4.890;2023-02-22T17:54:35;51.40;;;25.52;;
47259;SDS011;32999;52.412;4.890;2023-02-22T17:59:39;48.10;;;24.77;;
47259;SDS011;32999;52.412;4.890;2023-02-22T18:04:41;53.35;;;25.27;;
47259;SDS011;32999;52.412;4.890;2023-02-22T18:09:42;49.03;;;25.25;;
47259;SDS011;32999;52.412;4.890;2023-02-22T18:14:46;58.72;;;27.63;;
47259;SDS011;32999;52.412;4.890;2023-02-22T18:19:47;58.10;;;24.90;;
47259;SDS011;32999;52.412;4.890;2023-02-22T18:24:49;49.30;;;26.02;;
47259;SDS011;32999;52.412;4.890;2023-02-22T18:29:54;60.50;;;27.43;;
47259;SDS011;32999;52.412;4.890;2023-02-22T18:34:56;61.88;;;26.77;;
47259;SDS011;32999;52.412;4.890;2023-02-22T18:39:58;53.10;;;25.60;;
47259;SDS011;32999;52.412;4.890;2023-02-22T18:45:02;56.03;;;28.23;;
47259;SDS011;32999;52.412;4.890;2023-02-22T18:50:05;54.10;;;26.00;;
47259;SDS011;32999;52.412;4.890;2023-02-22T18:55:11;50.33;;;25.48;;
47259;SDS011;32999;52.412;4.890;2023-02-22T19:00:16;62.13;;;26.20;;
47259;SDS011;32999;52.412;4.890;2023-02-22T19:05:23;49.03;;;24.30;;
47259;SDS011;32999;52.412;4.890;2023-02-22T19:10:24;55.17;;;26.65;;
47259;SDS011;32999;52.412;4.890;2023-02-22T19:15:27;45.47;;;24.77;;
47259;SDS011;32999;52.412;4.890;2023-02-22T19:20:30;47.83;;;26.05;;
47259;SDS011;32999;52.412;4.890;2023-02-22T19:25:32;53.58;;;25.48;;
47259;SDS011;32999;52.412;4.890;2023-02-22T19:30:35;48.85;;;24.38;;
47259;SDS011;32999;52.412;4.890;2023-02-22T19:35:37;48.22;;;24.17;;
47259;SDS011;32999;52.412;4.890;2023-02-22T19:40:47;61.05;;;28.05;;
47259;SDS011;32999;52.412;4.890;2023-02-22T19:45:50;53.08;;;25.65;;
47259;SDS011;32999;52.412;4.890;2023-02-22T19:50:52;50.83;;;25.45;;
47259;SDS011;32999;52.412;4.890;2023-02-22T19:55:56;51.35;;;24.25;;
47259;SDS011;32999;52.412;4.890;2023-02-22T20:00:59;59.65;;;24.60;;
47259;SDS011;32999;52.412;4.890;2023-02-22T20:06:01;50.72;;;25.55;;
47259;SDS011;32999;52.412;4.890;2023-02-22T20:11:08;57.60;;;25.83;;
47259;SDS011;32999;52.412;4.890;2023-02-22T20:16:13;64.23;;;27.87;;
47259;SDS011;32999;52.412;4.890;2023-02-22T20:21:17;59.65;;;26.70;;
47259;SDS011;32999;52.412;4.890;2023-02-22T20:26:20;63.17;;;24.70;;
47259;SDS011;32999;52.412;4.890;2023-02-22T20:31:24;56.55;;;24.27;;
47259;SDS011;32999;52.412;4.890;2023-02-22T20:36:28;57.35;;;25.00;;
47259;SDS011;32999;52.412;4.890;2023-02-22T20:41:34;58.38;;;26.52;;
47259;SDS011;32999;52.412;4.890;2023-02-22T20:46:37;65.05;;;24.20;;
47259;SDS011;32999;52.412;4.890;2023-02-22T20:51:39;62.42;;;25.90;;
47259;SDS011;32999;52.412;4.890;2023-02-22T20:56:42;70.75;;;26.90;;
47259;SDS011;32999;52.412;4.890;2023-02-22T21:01:46;63.47;;;25.08;;
47259;SDS011;32999;52.412;4.890;2023-02-22T21:06:49;72.37;;;28.67;;
47259;SDS011;32999;52.412;4.890;2023-02-22T21:11:51;87.43;;;29.73;;
47259;SDS011;32999;52.412;4.890;2023-02-22T21:17:10;69.93;;;27.33;;
47259;SDS011;32999;52.412;4.890;2023-02-22T21:22:31;81.57;;;28.20;;
47259;SDS011;32999;52.412;4.890;2023-02-22T21:28:30;95.28;;;27.77;;
47259;SDS011;32999;52.412;4.890;2023-02-22T22:22:00;68.15;;;27.80;;
47259;SDS011;32999;52.412;4.890;2023-02-22T22:27:28;80.38;;;28.55;;
47259;SDS011;32999;52.412;4.890;2023-02-22T22:32:31;70.18;;;25.73;;
47259;SDS011;32999;52.412;4.890;2023-02-22T22:37:33;80.78;;;26.90;;
47259;SDS011;32999;52.412;4.890;2023-02-22T22:42:37;68.50;;;26.42;;
47259;SDS011;32999;52.412;4.890;2023-02-22T22:47:40;70.38;;;27.40;;
47259;SDS011;32999;52.412;4.890;2023-02-22T22:53:22;76.77;;;27.20;;
47259;SDS011;32999;52.412;4.890;2023-02-22T22:58:19;74.32;;;23.80;;
47259;SDS011;32999;52.412;4.890;2023-02-22T23:03:21;75.90;;;26.00;;
47259;SDS011;32999;52.412;4.890;2023-02-22T23:08:23;70.28;;;26.70;;
47259;SDS011;32999;52.412;4.890;2023-02-22T23:13:29;68.13;;;25.33;;
47259;SDS011;32999;52.412;4.890;2023-02-22T23:18:32;68.38;;;25.90;;
47259;SDS011;32999;52.412;4.890;2023-02-22T23:23:35;68.38;;;24.15;;
47259;SDS011;32999;52.412;4.890;2023-02-22T23:28:39;66.65;;;25.85;;
47259;SDS011;32999;52.412;4.890;2023-02-22T23:33:42;65.55;;;23.65;;
47259;SDS011;32999;52.412;4.890;2023-02-22T23:38:47;57.72;;;23.55;;
47259;SDS011;32999;52.412;4.890;2023-02-22T23:43:50;63.50;;;24.17;;
47259;SDS011;32999;52.412;4.890;2023-02-22T23:48:53;61.88;;;23.77;;
47259;SDS011;32999;52.412;4.890;2023-02-22T23:54:00;67.70;;;23.30;;
47259;SDS011;32999;52.412;4.890;2023-02-22T23:59:04;61.03;;;22.77;;
